sensor_id;sensor_type;location;lat;lon;timestamp;pressure;altitude;pressure_sealevel;temperature;humidity
26320;BME280;14024;52.226;5.200;2024-01-30T00:02:07;102582.31;;;10.89;91.58
26320;BME280;14024;52.226;5.200;2024-01-30T00:04:33;102580.75;;;10.81;91.84
26320;BME280;14024;52.226;5.200;2024-01-30T00:06:58;102581.13;;;10.64;91.88
26320;BME280;14024;52.226;5.200;2024-01-30T00:09:23;102574.16;;;10.97;89.16
26320;BME280;14024;52.226;5.200;2024-01-30T00:11:49;102583.53;;;10.76;90.67
26320;BME280;14024;52.226;5.200;2024-01-30T00:14:14;102580.91;;;10.73;92.09
26320;BME280;14024;52.226;5.200;2024-01-30T00:16:39;102572.59;;;11.24;90.13
26320;BME280;14024;52.226;5.200;2024-01-30T00:19:05;102573.78;;;11.44;90.33
26320;BME280;14024;52.226;5.200;2024-01-30T00:21:30;102575.59;;;11.76;88.05
26320;BME280;14024;52.226;5.200;2024-01-30T00:23:55;102572.00;;;11.45;88.74
26320;BME280;14024;52.226;5.200;2024-01-30T00:26:20;102570.25;;;11.11;90.34
26320;BME280;14024;52.226;5.200;2024-01-30T00:28:46;102568.56;;;11.41;88.98
26320;BME280;14024;52.226;5.200;2024-01-30T00:31:11;102567.88;;;11.01;89.34
26320;BME280;14024;52.226;5.200;2024-01-30T00:33:40;102571.09;;;11.46;88.63
26320;BME280;14024;52.226;5.200;2024-01-30T00:36:06;102569.22;;;11.17;87.59
26320;BME280;14024;52.226;5.200;2024-01-30T00:38:32;102566.84;;;11.06;90.25
26320;BME280;14024;52.226;5.200;2024-01-30T00:40:58;102572.81;;;10.79;89.63
26320;BME280;14024;52.226;5.200;2024-01-30T00:43:23;102569.63;;;10.65;89.76
26320;BME280;14024;52.226;5.200;2024-01-30T00:45:50;102570.13;;;11.48;89.04
26320;BME280;14024;52.226;5.200;2024-01-30T00:48:17;102566.66;;;11.12;89.09
26320;BME280;14024;52.226;5.200;2024-01-30T00:50:42;102563.81;;;10.86;88.99
26320;BME280;14024;52.226;5.200;2024-01-30T00:53:07;102567.97;;;10.61;91.71
26320;BME280;14024;52.226;5.200;2024-01-30T00:55:33;102560.91;;;10.95;90.24
26320;BME280;14024;52.226;5.200;2024-01-30T00:57:58;102559.16;;;10.96;88.94
26320;BME280;14024;52.226;5.200;2024-01-30T01:00:23;102556.75;;;10.85;89.18
26320;BME280;14024;52.226;5.200;2024-01-30T01:02:54;102553.66;;;11.68;87.94
26320;BME280;14024;52.226;5.200;2024-01-30T01:05:19;102566.00;;;11.38;88.12
26320;BME280;14024;52.226;5.200;2024-01-30T01:07:45;102559.66;;;11.76;88.41
26320;BME280;14024;52.226;5.200;2024-01-30T01:10:12;102551.44;;;11.21;89.53
26320;BME280;14024;52.226;5.200;2024-01-30T01:12:39;102549.19;;;11.70;87.35
26320;BME280;14024;52.226;5.200;2024-01-30T01:15:05;102541.81;;;11.16;89.43
26320;BME280;14024;52.226;5.200;2024-01-30T01:17:30;102544.16;;;11.29;87.30
26320;BME280;14024;52.226;5.200;2024-01-30T01:19:57;102533.06;;;11.45;87.70
26320;BME280;14024;52.226;5.200;2024-01-30T01:22:22;102532.72;;;10.91;89.50
26320;BME280;14024;52.226;5.200;2024-01-30T01:24:48;102545.88;;;10.60;91.16
26320;BME280;14024;52.226;5.200;2024-01-30T01:27:13;102541.13;;;10.36;93.99
26320;BME280;14024;52.226;5.200;2024-01-30T01:29:38;102539.69;;;10.60;90.98
26320;BME280;14024;52.226;5.200;2024-01-30T01:32:04;102546.44;;;11.42;90.71
26320;BME280;14024;52.226;5.200;2024-01-30T01:34:29;102536.34;;;11.55;87.47
26320;BME280;14024;52.226;5.200;2024-01-30T01:36:55;102546.66;;;11.66;89.00
26320;BME280;14024;52.226;5.200;2024-01-30T01:39:21;102553.09;;;11.25;87.81
26320;BME280;14024;52.226;5.200;2024-01-30T01:41:47;102543.78;;;11.08;90.78
26320;BME280;14024;52.226;5.200;2024-01-30T01:44:13;102547.28;;;11.10;89.42
26320;BME280;14024;52.226;5.200;2024-01-30T01:46:38;102549.63;;;10.87;89.63
26320;BME280;14024;52.226;5.200;2024-01-30T01:49:07;102539.91;;;11.22;89.30
26320;BME280;14024;52.226;5.200;2024-01-30T01:51:35;102545.59;;;12.03;87.07
26320;BME280;14024;52.226;5.200;2024-01-30T01:54:03;102549.72;;;12.14;85.32
26320;BME280;14024;52.226;5.200;2024-01-30T01:56:29;102537.00;;;11.94;85.19
26320;BME280;14024;52.226;5.200;2024-01-30T01:58:59;102536.38;;;11.86;86.88
26320;BME280;14024;52.226;5.200;2024-01-30T02:01:26;102534.69;;;12.40;86.54
26320;BME280;14024;52.226;5.200;2024-01-30T02:03:52;102529.41;;;12.39;85.02
26320;BME280;14024;52.226;5.200;2024-01-30T02:06:18;102531.16;;;12.40;82.07
26320;BME280;14024;52.226;5.200;2024-01-30T02:08:43;102542.41;;;13.02;82.20
26320;BME280;14024;52.226;5.200;2024-01-30T02:11:09;102546.03;;;11.24;87.91
26320;BME280;14024;52.226;5.200;2024-01-30T02:13:35;102548.31;;;10.69;87.97
26320;BME280;14024;52.226;5.200;2024-01-30T02:16:01;102537.00;;;10.98;88.89
26320;BME280;14024;52.226;5.200;2024-01-30T02:18:26;102521.06;;;12.23;87.00
26320;BME280;14024;52.226;5.200;2024-01-30T02:20:54;102512.38;;;12.72;84.11
26320;BME280;14024;52.226;5.200;2024-01-30T02:23:22;102541.00;;;11.79;82.88
26320;BME280;14024;52.226;5.200;2024-01-30T02:25:49;102547.72;;;11.60;86.10
26320;BME280;14024;52.226;5.200;2024-01-30T02:28:15;102529.84;;;12.25;85.20
26320;BME280;14024;52.226;5.200;2024-01-30T02:30:42;102527.34;;;11.91;85.01
26320;BME280;14024;52.226;5.200;2024-01-30T02:33:08;102541.72;;;11.19;87.22
26320;BME280;14024;52.226;5.200;2024-01-30T02:35:33;102541.94;;;10.77;90.06
26320;BME280;14024;52.226;5.200;2024-01-30T02:37:59;102538.41;;;11.11;88.24
26320;BME280;14024;52.226;5.200;2024-01-30T02:40:26;102526.53;;;10.92;91.07
26320;BME280;14024;52.226;5.200;2024-01-30T02:42:51;102522.25;;;11.21;86.74
26320;BME280;14024;52.226;5.200;2024-01-30T02:45:16;102496.06;;;11.70;88.42
26320;BME280;14024;52.226;5.200;2024-01-30T02:47:42;102498.78;;;11.38;86.06
26320;BME280;14024;52.226;5.200;2024-01-30T02:50:07;102517.59;;;10.61;87.81
26320;BME280;14024;52.226;5.200;2024-01-30T02:52:33;102511.53;;;10.90;89.97
26320;BME280;14024;52.226;5.200;2024-01-30T02:54:59;102518.19;;;11.71;86.03
26320;BME280;14024;52.226;5.200;2024-01-30T02:57:24;102510.13;;;11.75;84.97
26320;BME280;14024;52.226;5.200;2024-01-30T02:59:50;102500.25;;;12.08;83.90
26320;BME280;14024;52.226;5.200;2024-01-30T03:02:15;102499.44;;;11.44;86.75
26320;BME280;14024;52.226;5.200;2024-01-30T03:04:41;102502.88;;;11.80;83.84
26320;BME280;14024;52.226;5.200;2024-01-30T03:07:06;102502.53;;;11.61;87.22
26320;BME280;14024;52.226;5.200;2024-01-30T03:09:32;102503.84;;;11.45;87.02
26320;BME280;14024;52.226;5.200;2024-01-30T03:11:57;102503.69;;;10.85;86.80
26320;BME280;14024;52.226;5.200;2024-01-30T03:14:22;102489.84;;;10.74;88.26
26320;BME280;14024;52.226;5.200;2024-01-30T03:16:48;102498.38;;;10.85;87.81
26320;BME280;14024;52.226;5.200;2024-01-30T03:19:13;102493.09;;;11.50;89.52
26320;BME280;14024;52.226;5.200;2024-01-30T03:21:38;102494.91;;;11.80;85.54
26320;BME280;14024;52.226;5.200;2024-01-30T03:24:04;102480.53;;;11.87;83.30
26320;BME280;14024;52.226;5.200;2024-01-30T03:26:29;102484.97;;;11.87;83.53
26320;BME280;14024;52.226;5.200;2024-01-30T03:28:55;102486.16;;;11.46;85.34
26320;BME280;14024;52.226;5.200;2024-01-30T03:31:20;102476.53;;;11.09;86.66
26320;BME280;14024;52.226;5.200;2024-01-30T03:33:45;102467.91;;;11.01;88.95
26320;BME280;14024;52.226;5.200;2024-01-30T03:36:11;102467.00;;;11.66;88.33
26320;BME280;14024;52.226;5.200;2024-01-30T03:38:36;102465.06;;;12.01;85.48
26320;BME280;14024;52.226;5.200;2024-01-30T03:41:01;102464.16;;;11.10;85.75
26320;BME280;14024;52.226;5.200;2024-01-30T03:43:27;102466.06;;;10.71;88.14
26320;BME280;14024;52.226;5.200;2024-01-30T03:45:52;102458.25;;;10.99;89.43
26320;BME280;14024;52.226;5.200;2024-01-30T03:48:18;102456.81;;;11.81;87.66
26320;BME280;14024;52.226;5.200;2024-01-30T03:50:43;102462.13;;;11.19;86.17
26320;BME280;14024;52.226;5.200;2024-01-30T03:53:08;102468.28;;;11.20;84.84
26320;BME280;14024;52.226;5.200;2024-01-30T03:55:34;102474.59;;;11.16;86.94
26320;BME280;14024;52.226;5.200;2024-01-30T03:57:59;102461.75;;;11.32;87.04
26320;BME280;14024;52.226;5.200;2024-01-30T04:00:25;102467.56;;;11.13;88.26
26320;BME280;14024;52.226;5.200;2024-01-30T04:02:50;102470.47;;;11.37;86.40
26320;BME280;14024;52.226;5.200;2024-01-30T04:05:16;102471.13;;;11.12;88.08
26320;BME280;14024;52.226;5.200;2024-01-30T04:07:41;102467.81;;;11.04;86.35
26320;BME280;14024;52.226;5.200;2024-01-30T04:10:08;102474.38;;;10.91;87.76
26320;BME280;14024;52.226;5.200;2024-01-30T04:12:33;102474.78;;;10.76;89.49
26320;BME280;14024;52.226;5.200;2024-01-30T04:14:58;102470.06;;;10.87;86.48
26320;BME280;14024;52.226;5.200;2024-01-30T04:17:24;102472.13;;;11.08;87.64
26320;BME280;14024;52.226;5.200;2024-01-30T04:19:49;102469.06;;;10.91;87.80
26320;BME280;14024;52.226;5.200;2024-01-30T04:22:14;102456.50;;;10.64;88.51
26320;BME280;14024;52.226;5.200;2024-01-30T04:24:40;102457.59;;;11.23;87.31
26320;BME280;14024;52.226;5.200;2024-01-30T04:27:05;102461.53;;;10.76;87.96
26320;BME280;14024;52.226;5.200;2024-01-30T04:29:30;102457.81;;;10.48;88.75
26320;BME280;14024;52.226;5.200;2024-01-30T04:31:57;102452.56;;;10.08;91.46
26320;BME280;14024;52.226;5.200;2024-01-30T04:34:23;102450.53;;;10.56;91.33
26320;BME280;14024;52.226;5.200;2024-01-30T04:36:48;102446.09;;;10.56;89.71
26320;BME280;14024;52.226;5.200;2024-01-30T04:39:13;102445.75;;;10.70;90.32
26320;BME280;14024;52.226;5.200;2024-01-30T04:41:38;102441.06;;;10.46;89.38
26320;BME280;14024;52.226;5.200;2024-01-30T04:44:04;102436.97;;;10.68;89.26
26320;BME280;14024;52.226;5.200;2024-01-30T04:46:30;102439.25;;;10.48;90.31
26320;BME280;14024;52.226;5.200;2024-01-30T04:48:55;102438.00;;;10.62;90.92
26320;BME280;14024;52.226;5.200;2024-01-30T04:51:20;102440.16;;;10.47;89.48
26320;BME280;14024;52.226;5.200;2024-01-30T04:53:46;102439.31;;;10.45;91.55
26320;BME280;14024;52.226;5.200;2024-01-30T04:56:11;102439.84;;;10.23;89.83
26320;BME280;14024;52.226;5.200;2024-01-30T04:58:36;102448.69;;;9.43;94.21
26320;BME280;14024;52.226;5.200;2024-01-30T05:01:02;102444.56;;;9.71;95.75
26320;BME280;14024;52.226;5.200;2024-01-30T05:03:27;102430.53;;;9.66;95.31
26320;BME280;14024;52.226;5.200;2024-01-30T05:05:53;102439.88;;;9.82;95.03
26320;BME280;14024;52.226;5.200;2024-01-30T05:08:18;102436.50;;;10.14;93.44
26320;BME280;14024;52.226;5.200;2024-01-30T05:10:43;102431.84;;;10.26;91.11
26320;BME280;14024;52.226;5.200;2024-01-30T05:13:09;102430.66;;;10.00;91.86
26320;BME280;14024;52.226;5.200;2024-01-30T05:15:35;102429.59;;;9.68;93.62
26320;BME280;14024;52.226;5.200;2024-01-30T05:18:00;102431.22;;;10.15;93.10
26320;BME280;14024;52.226;5.200;2024-01-30T05:20:25;102426.34;;;10.34;92.25
26320;BME280;14024;52.226;5.200;2024-01-30T05:22:53;102425.84;;;10.54;91.88
26320;BME280;14024;52.226;5.200;2024-01-30T05:25:18;102437.09;;;10.28;91.80
26320;BME280;14024;52.226;5.200;2024-01-30T05:27:44;102430.28;;;10.53;90.93
26320;BME280;14024;52.226;5.200;2024-01-30T05:30:10;102435.34;;;9.87;94.06
26320;BME280;14024;52.226;5.200;2024-01-30T05:32:35;102428.03;;;10.37;93.86
26320;BME280;14024;52.226;5.200;2024-01-30T05:35:00;102429.41;;;10.17;93.63
26320;BME280;14024;52.226;5.200;2024-01-30T05:37:26;102422.28;;;10.19;93.57
26320;BME280;14024;52.226;5.200;2024-01-30T05:39:51;102430.78;;;10.34;92.86
26320;BME280;14024;52.226;5.200;2024-01-30T05:42:16;102432.44;;;10.38;93.67
26320;BME280;14024;52.226;5.200;2024-01-30T05:44:42;102426.13;;;10.43;91.65
26320;BME280;14024;52.226;5.200;2024-01-30T05:47:07;102423.03;;;10.26;92.29
26320;BME280;14024;52.226;5.200;2024-01-30T05:49:33;102429.91;;;10.33;91.70
26320;BME280;14024;52.226;5.200;2024-01-30T05:51:58;102431.75;;;10.29;92.83
26320;BME280;14024;52.226;5.200;2024-01-30T05:54:23;102432.41;;;10.39;93.07
26320;BME280;14024;52.226;5.200;2024-01-30T05:56:49;102431.00;;;10.24;92.29
26320;BME280;14024;52.226;5.200;2024-01-30T05:59:14;102425.78;;;10.21;93.02
26320;BME280;14024;52.226;5.200;2024-01-30T06:01:48;102427.41;;;9.89;93.13
26320;BME280;14024;52.226;5.200;2024-01-30T06:04:14;102435.53;;;9.81;94.08
26320;BME280;14024;52.226;5.200;2024-01-30T06:06:40;102441.00;;;9.72;96.67
26320;BME280;14024;52.226;5.200;2024-01-30T06:09:05;102443.56;;;9.76;95.83
26320;BME280;14024;52.226;5.200;2024-01-30T06:11:30;102445.38;;;9.73;95.58
26320;BME280;14024;52.226;5.200;2024-01-30T06:13:56;102440.66;;;9.47;96.48
26320;BME280;14024;52.226;5.200;2024-01-30T06:16:21;102435.56;;;9.78;98.05
26320;BME280;14024;52.226;5.200;2024-01-30T06:18:47;102427.81;;;9.70;95.56
26320;BME280;14024;52.226;5.200;2024-01-30T06:21:13;102427.03;;;10.41;94.91
26320;BME280;14024;52.226;5.200;2024-01-30T06:23:38;102432.97;;;10.13;94.02
26320;BME280;14024;52.226;5.200;2024-01-30T06:26:06;102433.16;;;10.07;96.91
26320;BME280;14024;52.226;5.200;2024-01-30T06:28:31;102437.75;;;9.99;94.88
26320;BME280;14024;52.226;5.200;2024-01-30T06:30:57;102424.94;;;9.81;97.13
26320;BME280;14024;52.226;5.200;2024-01-30T06:33:22;102430.88;;;9.51;97.25
26320;BME280;14024;52.226;5.200;2024-01-30T06:35:48;102430.66;;;9.61;97.34
26320;BME280;14024;52.226;5.200;2024-01-30T06:38:13;102438.09;;;9.82;96.58
26320;BME280;14024;52.226;5.200;2024-01-30T06:40:41;102442.81;;;9.70;96.73
26320;BME280;14024;52.226;5.200;2024-01-30T06:43:06;102441.91;;;9.71;99.17
26320;BME280;14024;52.226;5.200;2024-01-30T06:45:33;102446.16;;;9.78;96.25
26320;BME280;14024;52.226;5.200;2024-01-30T06:47:59;102448.19;;;9.65;97.31
26320;BME280;14024;52.226;5.200;2024-01-30T06:50:25;102451.81;;;9.61;96.81
26320;BME280;14024;52.226;5.200;2024-01-30T06:52:50;102448.09;;;9.71;99.07
26320;BME280;14024;52.226;5.200;2024-01-30T06:55:16;102454.75;;;9.89;97.98
26320;BME280;14024;52.226;5.200;2024-01-30T06:57:41;102451.09;;;9.95;96.89
26320;BME280;14024;52.226;5.200;2024-01-30T07:00:07;102459.75;;;9.63;97.64
26320;BME280;14024;52.226;5.200;2024-01-30T07:02:32;102448.69;;;9.82;96.83
26320;BME280;14024;52.226;5.200;2024-01-30T07:04:58;102451.25;;;9.87;97.57
26320;BME280;14024;52.226;5.200;2024-01-30T07:07:25;102453.66;;;9.98;97.55
26320;BME280;14024;52.226;5.200;2024-01-30T07:09:50;102448.09;;;9.71;97.18
26320;BME280;14024;52.226;5.200;2024-01-30T07:12:21;102452.19;;;9.86;97.28
26320;BME280;14024;52.226;5.200;2024-01-30T07:14:49;102451.31;;;9.84;98.58
26320;BME280;14024;52.226;5.200;2024-01-30T07:17:16;102444.16;;;9.89;97.97
26320;BME280;14024;52.226;5.200;2024-01-30T07:19:41;102449.38;;;9.92;97.42
26320;BME280;14024;52.226;5.200;2024-01-30T07:22:07;102453.47;;;9.67;98.57
26320;BME280;14024;52.226;5.200;2024-01-30T07:24:33;102453.78;;;9.52;100.00
26320;BME280;14024;52.226;5.200;2024-01-30T07:26:58;102461.00;;;9.44;100.00
26320;BME280;14024;52.226;5.200;2024-01-30T07:29:24;102465.53;;;9.38;100.00
26320;BME280;14024;52.226;5.200;2024-01-30T07:31:49;102465.53;;;9.37;100.00
26320;BME280;14024;52.226;5.200;2024-01-30T07:34:15;102469.94;;;9.39;100.00
26320;BME280;14024;52.226;5.200;2024-01-30T07:36:40;102468.97;;;9.44;100.00
26320;BME280;14024;52.226;5.200;2024-01-30T07:39:05;102475.06;;;9.47;100.00
26320;BME280;14024;52.226;5.200;2024-01-30T07:41:31;102470.63;;;9.48;100.00
26320;BME280;14024;52.226;5.200;2024-01-30T07:43:57;102474.97;;;9.52;100.00
26320;BME280;14024;52.226;5.200;2024-01-30T07:46:22;102478.38;;;9.57;100.00
26320;BME280;14024;52.226;5.200;2024-01-30T07:48:47;102481.81;;;9.63;100.00
26320;BME280;14024;52.226;5.200;2024-01-30T07:51:13;102487.94;;;9.64;100.00
26320;BME280;14024;52.226;5.200;2024-01-30T07:53:38;102489.56;;;9.71;100.00
26320;BME280;14024;52.226;5.200;2024-01-30T07:56:07;102492.16;;;9.74;100.00
26320;BME280;14024;52.226;5.200;2024-01-30T07:58:32;102489.38;;;9.80;100.00
26320;BME280;14024;52.226;5.200;2024-01-30T08:00:58;102486.47;;;9.92;100.00
26320;BME280;14024;52.226;5.200;2024-01-30T08:03:25;102498.72;;;9.96;100.00
26320;BME280;14024;52.226;5.200;2024-01-30T08:05:51;102491.44;;;10.07;100.00
26320;BME280;14024;52.226;5.200;2024-01-30T08:08:16;102501.84;;;10.16;100.00
26320;BME280;14024;52.226;5.200;2024-01-30T08:10:41;102495.34;;;10.31;100.00
26320;BME280;14024;52.226;5.200;2024-01-30T08:13:06;102496.22;;;10.30;100.00
26320;BME280;14024;52.226;5.200;2024-01-30T08:15:34;102495.25;;;10.34;100.00
26320;BME280;14024;52.226;5.200;2024-01-30T08:17:59;102489.00;;;10.37;100.00
26320;BME280;14024;52.226;5.200;2024-01-30T08:20:25;102489.84;;;10.39;100.00
26320;BME280;14024;52.226;5.200;2024-01-30T08:22:51;102493.31;;;10.41;100.00
26320;BME280;14024;52.226;5.200;2024-01-30T08:25:16;102504.69;;;10.46;100.00
26320;BME280;14024;52.226;5.200;2024-01-30T08:27:42;102510.78;;;10.49;100.00
26320;BME280;14024;52.226;5.200;2024-01-30T08:30:07;102491.09;;;10.59;100.00
26320;BME280;14024;52.226;5.200;2024-01-30T08:32:33;102499.78;;;10.66;100.00
26320;BME280;14024;52.226;5.200;2024-01-30T08:34:59;102504.13;;;10.68;100.00
26320;BME280;14024;52.226;5.200;2024-01-30T08:37:24;102501.34;;;10.74;100.00
26320;BME280;14024;52.226;5.200;2024-01-30T08:39:49;102504.00;;;10.73;100.00
26320;BME280;14024;52.226;5.200;2024-01-30T08:42:15;102497.84;;;10.72;100.00
26320;BME280;14024;52.226;5.200;2024-01-30T08:44:42;102500.38;;;10.77;100.00
26320;BME280;14024;52.226;5.200;2024-01-30T08:47:07;102500.44;;;10.76;100.00
26320;BME280;14024;52.226;5.200;2024-01-30T08:49:33;102501.22;;;10.79;100.00
26320;BME280;14024;52.226;5.200;2024-01-30T08:51:58;102512.69;;;10.80;100.00
26320;BME280;14024;52.226;5.200;2024-01-30T08:54:23;102504.75;;;10.80;99.93
26320;BME280;14024;52.226;5.200;2024-01-30T08:56:49;102503.88;;;10.79;100.00
26320;BME280;14024;52.226;5.200;2024-01-30T08:59:14;102506.56;;;10.78;100.00
26320;BME280;14024;52.226;5.200;2024-01-30T09:01:40;102503.97;;;10.76;99.80
26320;BME280;14024;52.226;5.200;2024-01-30T09:04:05;102500.47;;;10.72;100.00
26320;BME280;14024;52.226;5.200;2024-01-30T09:06:30;102499.69;;;10.69;100.00
26320;BME280;14024;52.226;5.200;2024-01-30T09:08:56;102500.59;;;10.68;100.00
26320;BME280;14024;52.226;5.200;2024-01-30T09:11:23;102500.59;;;10.68;100.00
26320;BME280;14024;52.226;5.200;2024-01-30T09:13:48;102514.78;;;10.67;100.00
26320;BME280;14024;52.226;5.200;2024-01-30T09:16:14;102500.59;;;10.68;100.00
26320;BME280;14024;52.226;5.200;2024-01-30T09:18:41;102508.63;;;10.66;100.00
26320;BME280;14024;52.226;5.200;2024-01-30T09:21:06;102517.44;;;10.67;100.00
26320;BME280;14024;52.226;5.200;2024-01-30T09:23:31;102519.16;;;10.68;100.00
26320;BME280;14024;52.226;5.200;2024-01-30T09:25:57;102517.47;;;10.65;100.00
26320;BME280;14024;52.226;5.200;2024-01-30T09:28:23;102517.47;;;10.65;100.00
26320;BME280;14024;52.226;5.200;2024-01-30T09:30:48;102514.81;;;10.65;100.00
26320;BME280;14024;52.226;5.200;2024-01-30T09:33:13;102523.66;;;10.66;100.00
26320;BME280;14024;52.226;5.200;2024-01-30T09:35:39;102530.69;;;10.67;100.00
26320;BME280;14024;52.226;5.200;2024-01-30T09:38:04;102523.56;;;10.69;100.00
26320;BME280;14024;52.226;5.200;2024-01-30T09:40:30;102527.06;;;10.71;100.00
26320;BME280;14024;52.226;5.200;2024-01-30T09:42:55;102534.91;;;10.76;100.00
26320;BME280;14024;52.226;5.200;2024-01-30T09:45:24;102531.38;;;10.75;100.00
26320;BME280;14024;52.226;5.200;2024-01-30T09:47:50;102533.03;;;10.81;100.00
26320;BME280;14024;52.226;5.200;2024-01-30T09:50:16;102530.31;;;10.82;100.00
26320;BME280;14024;52.226;5.200;2024-01-30T09:52:42;102532.94;;;10.84;100.00
26320;BME280;14024;52.226;5.200;2024-01-30T09:55:09;102538.19;;;10.85;100.00
26320;BME280;14024;52.226;5.200;2024-01-30T09:57:35;102534.63;;;10.86;100.00
26320;BME280;14024;52.226;5.200;2024-01-30T10:00:01;102542.44;;;10.92;100.00
26320;BME280;14024;52.226;5.200;2024-01-30T10:02:27;102545.09;;;10.92;99.95
26320;BME280;14024;52.226;5.200;2024-01-30T10:04:52;102549.50;;;10.93;99.85
26320;BME280;14024;52.226;5.200;2024-01-30T10:07:18;102541.34;;;11.01;100.00
26320;BME280;14024;52.226;5.200;2024-01-30T10:09:46;102534.94;;;11.08;99.54
26320;BME280;14024;52.226;5.200;2024-01-30T10:12:12;102545.44;;;11.12;99.30
26320;BME280;14024;52.226;5.200;2024-01-30T10:14:42;102553.56;;;11.06;99.75
26320;BME280;14024;52.226;5.200;2024-01-30T10:17:08;102549.09;;;11.08;99.63
26320;BME280;14024;52.226;5.200;2024-01-30T10:19:41;102555.34;;;11.06;99.74
26320;BME280;14024;52.226;5.200;2024-01-30T10:22:07;102558.03;;;11.04;100.00
26320;BME280;14024;52.226;5.200;2024-01-30T10:24:36;102544.84;;;11.03;100.00
26320;BME280;14024;52.226;5.200;2024-01-30T10:27:02;102529.81;;;11.02;100.00
26320;BME280;14024;52.226;5.200;2024-01-30T10:29:28;102534.22;;;11.03;100.00
26320;BME280;14024;52.226;5.200;2024-01-30T10:32:03;102554.56;;;11.02;100.00
26320;BME280;14024;52.226;5.200;2024-01-30T10:34:31;102560.66;;;11.06;99.60
26320;BME280;14024;52.226;5.200;2024-01-30T10:39:42;102561.34;;;10.79;99.68
26320;BME280;14024;52.226;5.200;2024-01-30T10:42:17;102570.41;;;10.68;99.14
26320;BME280;14024;52.226;5.200;2024-01-30T10:47:12;102568.88;;;10.60;99.35
26320;BME280;14024;52.226;5.200;2024-01-30T10:49:40;102568.47;;;10.40;99.67
26320;BME280;14024;52.226;5.200;2024-01-30T10:52:08;102571.13;;;10.38;99.85
26320;BME280;14024;52.226;5.200;2024-01-30T10:54:34;102584.38;;;10.38;100.00
26320;BME280;14024;52.226;5.200;2024-01-30T10:57:04;102574.66;;;10.39;100.00
26320;BME280;14024;52.226;5.200;2024-01-30T10:59:31;102590.69;;;10.33;99.47
26320;BME280;14024;52.226;5.200;2024-01-30T11:01:58;102603.13;;;10.31;99.59
26320;BME280;14024;52.226;5.200;2024-01-30T11:04:24;102606.88;;;10.20;99.07
26320;BME280;14024;52.226;5.200;2024-01-30T11:06:51;102587.28;;;10.66;96.07
26320;BME280;14024;52.226;5.200;2024-01-30T11:09:17;102612.25;;;10.56;94.82
26320;BME280;14024;52.226;5.200;2024-01-30T11:11:58;102631.50;;;10.65;93.85
26320;BME280;14024;52.226;5.200;2024-01-30T11:14:29;102593.81;;;10.51;94.30
26320;BME280;14024;52.226;5.200;2024-01-30T11:16:58;102595.78;;;10.42;94.13
26320;BME280;14024;52.226;5.200;2024-01-30T11:19:25;102596.38;;;10.54;93.35
26320;BME280;14024;52.226;5.200;2024-01-30T11:21:52;102606.28;;;10.46;93.41
26320;BME280;14024;52.226;5.200;2024-01-30T11:24:20;102616.59;;;10.60;93.01
26320;BME280;14024;52.226;5.200;2024-01-30T11:26:49;102612.34;;;10.53;92.65
26320;BME280;14024;52.226;5.200;2024-01-30T11:29:17;102612.69;;;10.36;92.76
26320;BME280;14024;52.226;5.200;2024-01-30T11:31:53;102598.72;;;10.29;91.75
26320;BME280;14024;52.226;5.200;2024-01-30T11:34:20;102616.19;;;10.40;91.33
26320;BME280;14024;52.226;5.200;2024-01-30T11:36:51;102622.31;;;10.40;91.02
26320;BME280;14024;52.226;5.200;2024-01-30T11:39:19;102625.34;;;10.23;91.05
26320;BME280;14024;52.226;5.200;2024-01-30T11:41:45;102609.03;;;10.42;90.34
26320;BME280;14024;52.226;5.200;2024-01-30T11:44:11;102615.00;;;10.53;89.68
26320;BME280;14024;52.226;5.200;2024-01-30T11:46:36;102612.47;;;10.47;88.98
26320;BME280;14024;52.226;5.200;2024-01-30T11:49:02;102611.78;;;9.94;92.08
26320;BME280;14024;52.226;5.200;2024-01-30T11:51:27;102615.69;;;9.75;93.32
26320;BME280;14024;52.226;5.200;2024-01-30T11:53:53;102620.22;;;9.68;94.47
26320;BME280;14024;52.226;5.200;2024-01-30T11:56:18;102624.88;;;9.56;95.03
26320;BME280;14024;52.226;5.200;2024-01-30T11:58:44;102628.53;;;9.49;96.15
26320;BME280;14024;52.226;5.200;2024-01-30T12:01:10;102627.88;;;9.36;96.87
26320;BME280;14024;52.226;5.200;2024-01-30T12:03:36;102614.75;;;9.31;97.54
26320;BME280;14024;52.226;5.200;2024-01-30T12:06:02;102629.75;;;9.28;97.75
26320;BME280;14024;52.226;5.200;2024-01-30T12:08:31;102640.47;;;9.22;96.87
26320;BME280;14024;52.226;5.200;2024-01-30T12:10:57;102648.38;;;9.23;97.14
26320;BME280;14024;52.226;5.200;2024-01-30T12:13:23;102641.44;;;9.16;96.18
26320;BME280;14024;52.226;5.200;2024-01-30T12:15:49;102638.72;;;9.19;96.30
26320;BME280;14024;52.226;5.200;2024-01-30T12:18:18;102650.25;;;9.17;96.21
26320;BME280;14024;52.226;5.200;2024-01-30T12:20:44;102630.13;;;9.07;96.19
26320;BME280;14024;52.226;5.200;2024-01-30T12:23:12;102648.56;;;9.13;96.29
26320;BME280;14024;52.226;5.200;2024-01-30T12:25:37;102638.13;;;9.04;96.50
26320;BME280;14024;52.226;5.200;2024-01-30T12:28:03;102648.50;;;9.14;97.03
26320;BME280;14024;52.226;5.200;2024-01-30T12:30:29;102644.16;;;9.13;96.27
26320;BME280;14024;52.226;5.200;2024-01-30T12:33:02;102637.81;;;9.22;96.52
26320;BME280;14024;52.226;5.200;2024-01-30T12:35:29;102639.72;;;9.14;96.47
26320;BME280;14024;52.226;5.200;2024-01-30T12:37:55;102640.63;;;9.11;97.17
26320;BME280;14024;52.226;5.200;2024-01-30T12:40:21;102635.94;;;9.28;96.75
26320;BME280;14024;52.226;5.200;2024-01-30T12:42:47;102651.84;;;9.27;96.63
26320;BME280;14024;52.226;5.200;2024-01-30T12:45:15;102648.38;;;9.23;97.00
26320;BME280;14024;52.226;5.200;2024-01-30T12:47:41;102653.72;;;9.20;97.49
26320;BME280;14024;52.226;5.200;2024-01-30T12:50:07;102654.53;;;9.24;97.95